Flight Track Log - Related Links

Times and Time Zones

All times are in EDT time to prevent confusion due to time zone crossing. See the EJA646 flight status page for this flight to view local times or setup timezone preferences in your user account.

Time Position Orientation Groundspeed Altitude Reporting Facility
EDT Latitude Longitude Course Direction KTS MPH feet Rate Location/Type
Sun 03:12:51 PM 42.4667 -71.3167 343° North 162 186 1,200  Level KA90
Sun 03:14:51 PM 42.5514 -71.3522 343° North 257 296 7,500 3,233 Climbing Boston Center
Sun 03:15:51 PM 42.6097 -71.3314 15° North 251 289 10,900 3,050 Climbing Boston Center
Sun 03:16:51 PM 42.6969 -71.3044 13° North 271 312 13,600 2,350 Climbing Boston Center
Sun 03:17:51 PM 42.7661 -71.3342 342° North 288 331 15,600 2,100 Climbing Boston Center
Sun 03:18:51 PM 42.7983 -71.4469 291° West 274 315 17,800 1,600 Climbing Boston Center
Sun 03:19:51 PM 42.8053 -71.5431 276° West 284 327 18,800 1,600 Climbing Boston Center
Sun 03:20:51 PM 42.8208 -71.6758 279° West 312 359 21,000 2,150 Climbing Boston Center
Sun 03:21:51 PM 42.8319 -71.7975 277° West 323 372 23,100 1,950 Climbing Boston Center
Sun 03:22:51 PM 42.8431 -71.9164 277° West 323 372 24,900 1,700 Climbing Boston Center
Sun 03:23:51 PM 42.8561 -72.0350 279° West 328 377 26,500 1,400 Climbing Boston Center
Sun 03:24:51 PM 42.8647 -72.1342 277° West 328 377 27,700 1,600 Climbing Boston Center
Sun 03:25:51 PM 42.8839 -72.2928 279° West 328 377 29,700 1,800 Climbing Boston Center
Sun 03:26:51 PM 42.8944 -72.4147 277° West 328 377 31,300 1,550 Climbing Boston Center
Sun 03:27:51 PM 42.9047 -72.5308 277° West 328 377 32,800 1,400 Climbing Boston Center
Sun 03:28:51 PM 42.9067 -72.6497 271° West 328 377 34,100 1,300 Climbing Boston Center
Sun 03:29:51 PM 42.9189 -72.7661 278° West 328 377 35,400 1,250 Climbing Boston Center
Sun 03:30:51 PM 42.9269 -72.8797 276° West 317 365 36,600 900 Climbing Boston Center
Sun 03:31:51 PM 42.9347 -72.9761 276° West 317 365 37,200 700 Climbing Boston Center
Sun 03:32:51 PM 42.9506 -73.1125 279° West 317 365 38,000 793 Climbing Boston Center
Sun 03:33:52 PM 42.9583 -73.2317 275° West 317 365 38,800 700 Climbing Boston Center
Sun 03:34:51 PM 42.9678 -73.3508 276° West 317 365 39,400 555 Climbing Boston Center
Sun 03:35:51 PM 42.9750 -73.4814 274° West 317 365 39,900 300 Climbing Boston Center
Sun 03:36:51 PM 42.9842 -73.6008 276° West 317 365 40,000 50 Climbing Boston Center
Sun 03:37:51 PM 42.9956 -73.7261 277° West 327 376 40,000  Level Boston Center
Sun 03:38:51 PM 43.0064 -73.8597 276° West 337 388 40,000  Level Boston Center
Sun 03:39:51 PM 43.0131 -73.9875 274° West 343 395 40,000  Level Boston Center
Sun 03:40:51 PM 43.0258 -74.1186 278° West 348 400 40,000  Level Boston Center
Sun 03:41:51 PM 43.0342 -74.2522 275° West 348 400 40,000  Level Boston Center
Sun 03:42:51 PM 43.0444 -74.3806 276° West 348 400 40,000  Level Boston Center
Sun 03:43:51 PM 43.0547 -74.5086 276° West 348 400 40,000  Level Boston Center
Sun 03:44:51 PM 43.0628 -74.6369 275° West 348 400 40,000  Level Boston Center
Sun 03:45:51 PM 43.0706 -74.7678 275° West 348 400 40,000  Level Boston Center
Sun 03:46:51 PM 43.0806 -74.8961 276° West 348 400 40,000  Level Boston Center
Sun 03:47:51 PM 43.0881 -75.0272 275° West 348 400 40,000  Level Boston Center
Sun 03:48:51 PM 43.0956 -75.1442 275° West 348 400 40,000  Level Boston Center
Sun 03:49:51 PM 43.1050 -75.2728 276° West 348 400 40,000  Level Boston Center
Sun 03:50:51 PM 43.1122 -75.4067 274° West 348 400 40,000  Level Boston Center
Sun 03:51:51 PM 43.1211 -75.5353 275° West 348 400 40,000  Level Boston Center
Sun 03:52:51 PM 43.1300 -75.6636 275° West 348 400 40,000  Level Boston Center
Sun 03:54:03 PM 43.1369 -75.7922 274° West 348 400 40,000  Level Boston Center
Sun 03:55:47 PM 43.1333 -76.0167 269° West 330 380 40,000  Level Toronto Center
Sun 03:56:16 PM 43.1553 -76.1089 288° West 344 396 40,000  Level Cleveland Center
Sun 03:57:16 PM 43.1581 -76.2369 272° West 344 396 40,000  Level Cleveland Center
Sun 03:58:16 PM 43.1483 -76.3656 264° West 344 396 40,000  Level Cleveland Center
Sun 03:59:16 PM 43.1383 -76.4944 264° West 349 402 40,000  Level Cleveland Center
Sun 04:00:16 PM 43.1261 -76.6261 263° West 354 407 40,000  Level Cleveland Center
Sun 04:01:16 PM 43.1117 -76.7550 261° West 354 407 40,000  Level Cleveland Center
Sun 04:02:16 PM 43.1014 -76.8808 264° West 354 407 40,000  Level Cleveland Center
Sun 04:03:16 PM 43.0886 -77.0122 262° West 354 407 40,000  Level Cleveland Center
Sun 04:04:16 PM 43.0781 -77.1408 264° West 354 407 40,000  Level Cleveland Center
Sun 04:05:16 PM 43.0653 -77.2725 262° West 354 407 40,000  Level Cleveland Center
Sun 04:06:16 PM 43.0542 -77.4008 263° West 354 407 40,000  Level Cleveland Center
Sun 04:07:16 PM 43.0431 -77.5294 263° West 354 407 40,000  Level Cleveland Center
Sun 04:08:16 PM 43.0297 -77.6578 262° West 354 407 40,000  Level Cleveland Center
Sun 04:09:16 PM 43.0161 -77.7861 262° West 354 407 40,000  Level Cleveland Center
Sun 04:10:16 PM 43.0047 -77.9175 263° West 354 407 40,000  Level Cleveland Center
Sun 04:11:16 PM 42.9908 -78.0456 262° West 354 407 40,000  Level Cleveland Center
Sun 04:12:16 PM 42.9792 -78.1739 263° West 354 407 40,000  Level Cleveland Center
Sun 04:13:16 PM 42.9633 -78.3164 261° West 354 407 40,000  Level Cleveland Center
Sun 04:14:16 PM 42.9511 -78.4444 263° West 354 407 40,000  Level Cleveland Center
Sun 04:15:16 PM 42.9367 -78.5783 262° West 354 407 40,000  Level Cleveland Center
Sun 04:16:16 PM 42.9347 -78.7089 269° West 354 407 40,000  Level Cleveland Center
Sun 04:17:16 PM 42.9411 -78.8392 274° West 354 407 40,000  Level Cleveland Center
Sun 04:17:47 PM 42.9333 -78.9000 260° West 350 403 40,000  Level Toronto Center
Sun 04:18:47 PM 42.9500 -79.0167 281° West 350 403 40,000  Level Toronto Center
Sun 04:19:47 PM 42.9500 -79.1500 270° West 350 403 40,000  Level Toronto Center
Sun 04:20:47 PM 42.9500 -79.2833 270° West 360 414 40,000  Level Toronto Center
Sun 04:21:47 PM 42.9667 -79.4333 279° West 360 414 40,000  Level Toronto Center
Sun 04:22:47 PM 42.9667 -79.5667 270° West 360 414 40,000  Level Toronto Center
Sun 04:23:47 PM 42.9667 -79.7000 270° West 360 414 40,000  Level Toronto Center
Sun 04:24:47 PM 42.9833 -79.8333 280° West 360 414 40,000  Level Toronto Center
Sun 04:25:47 PM 42.9833 -79.9667 270° West 360 414 40,000  Level Toronto Center
Sun 04:26:47 PM 42.9833 -80.0833 270° West 360 414 40,000  Level Toronto Center
Sun 04:27:47 PM 43.0000 -80.2333 279° West 350 403 40,000  Level Toronto Center
Sun 04:28:47 PM 43.0000 -80.3833 270° West 350 403 40,000  Level Toronto Center
Sun 04:29:47 PM 43.0000 -80.5000 270° West 350 403 40,000  Level Toronto Center
Sun 04:30:47 PM 43.0167 -80.6333 280° West 350 403 40,000  Level Toronto Center
Sun 04:31:47 PM 43.0167 -80.7667 270° West 350 403 40,000  Level Toronto Center
Sun 04:32:47 PM 43.0167 -80.8833 270° West 350 403 40,000  Level Toronto Center
Sun 04:33:47 PM 43.0167 -81.0167 270° West 350 403 40,000  Level Toronto Center
Sun 04:34:47 PM 43.0167 -81.1667 270° West 350 403 40,000  Level Toronto Center
Sun 04:35:47 PM 43.0167 -81.3000 270° West 350 403 40,000  Level Toronto Center
Sun 04:36:47 PM 43.0167 -81.4167 270° West 350 403 40,000  Level Toronto Center
Sun 04:37:47 PM 43.0167 -81.5500 270° West 350 403 40,000  Level Toronto Center
Sun 04:38:47 PM 43.0167 -81.6833 270° West 350 403 40,000  Level Toronto Center
Sun 04:39:47 PM 43.0167 -81.8167 270° West 350 403 40,000  Level Toronto Center
Sun 04:40:47 PM 43.0000 -81.9667 261° West 350 403 40,000  Level Toronto Center
Sun 04:41:47 PM 43.0000 -82.1000 270° West 350 403 40,000  Level Toronto Center
Sun 04:42:47 PM 43.0000 -82.2167 270° West 350 403 40,000  Level Toronto Center
Sun 04:43:47 PM 43.0000 -82.3500 270° West 350 403 40,000  Level Toronto Center
Sun 04:44:47 PM 43.0000 -82.4833 270° West 350 403 40,000  Level Toronto Center
Sun 04:45:47 PM 43.0000 -82.6167 270° West 350 403 40,000  Level Toronto Center
Sun 04:46:52 PM 43.0006 -82.7519 270° West 347 399 40,000  Level Cleveland Center
Sun 04:47:52 PM 42.9936 -82.8825 266° West 347 399 40,000  Level Cleveland Center
Sun 04:48:52 PM 42.9911 -83.0128 269° West 347 399 40,000  Level Cleveland Center
Sun 04:49:52 PM 42.9861 -83.1461 267° West 347 399 40,000  Level Cleveland Center
Sun 04:50:52 PM 42.9831 -83.2764 268° West 347 399 40,000  Level Cleveland Center
Sun 04:51:52 PM 42.9778 -83.4097 267° West 347 399 40,000  Level Cleveland Center
Sun 04:52:52 PM 42.9747 -83.5400 268° West 347 399 40,000  Level Cleveland Center
Sun 04:53:52 PM 42.9669 -83.6703 265° West 347 399 40,000  Level Cleveland Center
Sun 04:54:52 PM 42.9531 -83.8031 262° West 347 399 40,000  Level Cleveland Center
Sun 04:55:52 PM 42.9286 -83.9294 255° West 352 405 40,000 -250 Level Cleveland Center
Sun 04:56:52 PM 42.9039 -84.0583 255° West 352 405 39,500 -800 Descending Cleveland Center
Sun 04:57:52 PM 42.8747 -84.1900 253° West 357 411 38,400 -1,450 Descending Cleveland Center
Sun 04:58:52 PM 42.8453 -84.3269 254° West 387 445 36,600 -2,057 Descending Cleveland Center
Sun 05:00:47 PM 42.7833 -84.5833 252° West 360 414 32,400 -2,132 Descending Toronto Center
Sun 05:01:24 PM 42.7783 -84.6658 265° West 357 411 31,200 -1,455 Descending Chicago Center
Sun 05:02:26 PM 42.7508 -84.7947 254° West 356 410 30,000 -581 Descending Chicago Center
Sun 05:03:28 PM 42.7231 -84.9239 254° West 355 409 30,000  Level Chicago Center
Sun 05:04:30 PM 42.6958 -85.0547 254° West 359 413 30,000  Level Chicago Center
Sun 05:05:32 PM 42.6672 -85.1844 253° West 358 412 30,000 -48 Level Chicago Center
Sun 05:06:34 PM 42.6394 -85.3139 254° West 358 412 29,900 -726 Descending Chicago Center
Sun 05:07:36 PM 42.6047 -85.4747 254° West 365 420 28,500 -1,403 Descending Chicago Center
Sun 05:08:38 PM 42.5747 -85.6119 254° West 373 429 27,000 -1,742 Descending Chicago Center
Sun 05:09:40 PM 42.5450 -85.7506 254° West 379 436 24,900 -2,032 Descending Chicago Center
Sun 05:10:42 PM 42.5133 -85.8878 253° West 381 438 22,800 -2,081 Descending Chicago Center
Sun 05:11:44 PM 42.4825 -86.0267 253° West 383 441 20,600 -1,355 Descending Chicago Center
Sun 05:12:46 PM 42.4622 -86.1594 258° West 365 420 20,000 -290 Descending Chicago Center
Sun 05:13:48 PM 42.4561 -86.2872 266° West 341 392 20,000 -339 Level Chicago Center
Sun 05:14:50 PM 42.4483 -86.4417 266° West 343 395 19,300 -1,220 Descending Chicago Center
Sun 05:15:51 PM 42.4411 -86.5750 266° West 353 406 17,500 -2,293 Descending Chicago Center
Sun 05:16:53 PM 42.4350 -86.7097 267° West 357 411 14,600 -2,855 Descending Chicago Center
Sun 05:17:55 PM 42.4269 -86.8211 264° West 305 351 11,600 -2,855 Descending Chicago Center
Sun 05:18:57 PM 42.4217 -86.9231 266° West 276 318 8,700 -2,855 Descending Chicago Center
Sun 05:19:59 PM 42.4164 -87.0189 266° West 258 297 5,700 -2,710 Descending Chicago Center
Sun 05:21:01 PM 42.4103 -87.1139 265° West 253 291 3,100 -1,306 Descending Chicago Center
Sun 05:22:03 PM 42.4025 -87.2333 265° West 261 300 3,000 -49 Descending Chicago Center
Sun 05:23:04 PM 42.3958 -87.3314 265° West 262 302 3,000  Level Chicago Center
Sun 05:24:06 PM 42.3683 -87.4281 249° West 259 298 3,000  Level Chicago Center
Sun 05:25:45 PM 42.3367 -87.5564 252° West 224 258 3,000  Level Chicago Center
Sun 05:26:47 PM 42.3036 -87.6603 247° West 248 285 3,000  Level Chicago Center
Sun 05:27:49 PM 42.2781 -87.7439 248° West 248 285 3,000 -194 Level Chicago Center
Sun 05:28:51 PM 42.2586 -87.8114 249° West 222 255 2,600 -244 Descending Chicago Center
Sun 05:29:52 PM 42.2383 -87.8694 245° Southwest 192 221 2,500 -195 Descending Chicago Center
Sun 05:30:54 PM 42.2136 -87.9206 237° Southwest 178 205 2,200 -339 Descending Chicago Center
Sun 05:31:56 PM 42.1717 -87.9344 194° South 152 175 1,800 -290 Descending Chicago Center
Sun 05:32:58 PM 42.1361 -87.9231 167° South 149 171 1,600 -194 Descending Chicago Center
Sun 05:34:00 PM 42.1143 -87.9015 166° South  Level Estimated

Login

Don't have an account? Register now (free) for customized features, flight alerts, and more!